Aérodrome :
LOGIN :

S'inscrire | Disclaimer

   EN    FR    IT 

 










Légende :    VFR   VFR Marginal   IFR   IFR Intensif   IFR Très Intensif
Visi : 
Plafond : 
>= 8 km
>= 3000ft
5 à 8 km
1000 à 3000 ft
1500m à 5 km
500 à 1000 ft
800 à 1500m
200 à 500 ft
< 800m
< 200 ft
Symboles :   Orages  Brouillard  Fortes neiges  Fortes précipitations  Vent > 20 kt
SIGMETs :   Divers  Orages  Givrage  Turbulence  Onde Orograph.  Cendres Volcan.







- Altitude de l'aérodrome : 870 ft
- Code IATA : ETZ
- Voir les cartes d'approche


LFJL - Metz Nancy Lorraine

DERNIER METAR :
  • 181530Z AUTO 25007KT 9999 SCT042 OVC050 20/14 Q1023 NOSIG

METARs EXPIRÉS :
  • 181500Z AUTO 27009KT 9999 OVC044 20/14 Q1023 NOSIG
  • 181430Z AUTO 24009KT 210V270 9999 FEW032 BKN042 OVC050 21/13 Q1023 NOSIG
  • 181400Z AUTO 24009KT 210V270 9999 OVC047 21/13 Q1023 NOSIG
  • 181330Z AUTO 25010KT 9999 FEW033 OVC048 21/13 Q1023 NOSIG
  • 181300Z AUTO 25010KT 9999 FEW034 OVC048 22/13 Q1023 NOSIG
  • 181230Z AUTO 26010KT 9999 FEW035 OVC047 21/13 Q1023 NOSIG

TAF TAF LFJL
Valide du 18 à 12h jusqu'au 19 à 12h UTC


181100Z 1812/1912 25006KT 9999 FEW035 BKN050
Pas de NOTAMs connus pour ce terrain.



MET'MAP, la Météo Aéronautique d'un coup d'oeil ! - Copyright ORBIFLY Décembre 2007 - Disclaimer

ORBIFLY MET'MAP TEAM :

Programmation & Développement : Alexandra Zaïnal
Conception & Développement : Baudouin d'Aumeries
Co-Programmation & Développement : Marc-Olivier Méhu
Soutien technique & logistique : Manuel Goepfert

Contact : metmap@orbifly.com




SOURCES & CREDITS :

   NOAA